McCall, ID

8:21 AM MST on December 22, 2014 (GMT -0700)
ITD Goose Creek Grade ID US | Change Station
CLOSE
Current Station
Personal Weather Station
Location: McCall, ID
Elevation: 5416 ft
Nearby Weather Stations

Elev 5416 ft 44.93 °N, 116.16 °W | Updated 51 minutes ago

Light Snow
Light Snow
31 °F
Feels Like 31 °F
N
1
Wind Variable Wind from West
Gusts 2.0 mph

Today
High -- | Low -- °F
--% Chance of Precip.
Yesterday
High -- | Low -- °F
Precip. -- in
8:19 AM 5:06 PM
New Moon, 0% visible
Pressure 30.10 in
Visibility 7.0 miles
Clouds Overcast 5000 ft
Windchill 31 °F
Dew Point 31 °F
Humidity 100%
Rainfall 0.15 in
Snow Depth Not available.
UV 0 out of 12
Pollen .10 out of 12
Air Quality Not available.
Flu Activity Not available.
METAR KMYL 221451Z AUTO 19003KT 7SM -SN OVC050 M02/M02 A3003 RMK AO2 SNB1358E25B42 SLP191 P0000 60000 T10171017 53004

More Conditions Fewer Conditions

Pressure 30.10 in
Visibility 7.0 miles
Clouds Overcast 5000 ft
Windchill 31 °F
Dew Point 31 °F
Humidity 100%
Rainfall 0.15 in
Snow Depth Not available.
UV 0 out of 12
Pollen .10 out of 12
Air Quality Not available.
Flu Activity Not available.
METAR KMYL 221451Z AUTO 19003KT 7SM -SN OVC050 M02/M02 A3003 RMK AO2 SNB1358E25B42 SLP191 P0000 60000 T10171017 53004

More Conditions Fewer Conditions

10-Day Weather Forecast

Almanac

Astronomy

Dec. 22, 2014 Rise Set
Actual Time
Civil Twilight
Nautical Twilight
Astronomical Twilight
Moon
Length of Visible Light
Length of Day
Tomorrow will be .
, % of the Moon is Illuminated

Today's Extremes

State Highs State Lows

Community

WunderPhotos

Upload Photos

1,779,617 photos uploaded!

WunderBlogs® & News

Nearby

Air Quality

  Air Quality AQ Index Pollutant
Not available.

Snow Depth

Station Depth Elevation

Earthquake Activity

City Distance Mag. Time & Date
Minimum magnitude displayed is 2.5.

Coastal Water Temperatures

Place Temperature

Nearby Weather Stations